KGZN

Gregory M Simmons Memorial Airport

Cisco, Texas, USA
METAR KGZN 232240Z AUTO 36006KT 10SM CLR 15/M13 A3026 RMK AO2
Observed Flight Rules
Jan-23 @ 22:40 UTC (39 minutes ago) Visual Flight Rules
Wind Visibility Clouds
360° at 6 knots 10 miles
  • Clear skies
Temperatures Readings
Current 15°C / 59°F
Dewpoint -13°C / 9°F
Humidity 13%
Altimeter 30.26" Hg
Pressure 1025 hPa
Elevation 522
METAR KGZN 232240Z AUTO 36006KT 10SM CLR 15/M13 A3026 RMK AO2
Observed Flight Rules
Jan-23 @ 22:40 UTC
(39 minutes ago)
VFR
Wind Visibility
360° at 6 knots 10 miles
Clouds
  • Clear skies
Temperature Dewpoint
15°C / 59°F -13°C / 9°F
Humidity Altimeter Pressure
13% 30.26" Hg 1025 hPa